Aviation Digital Data Service (ADDS)

Output produced by METARs form (0124 UTC 23 July 2017)
found at http://www.aviationweather.gov/adds/metars/
 
KTCC 222325Z 2300/2324 07012KT P6SM VCTS BKN090CB 
     FM230300 02012KT P6SM VCSH BKN070 BKN120 
     FM230700 01006KT P6SM BKN130 
     FM231200 04007KT P6SM SCT150 
     FM231800 08010KT P6SM SCT090 
     FM232300 10008KT P6SM VCTS BKN080CB
       
KTCL 222339Z 2300/2324 20006KT P6SM SCT200 
     TEMPO 2310/2312 5SM BR 
     FM231500 23005KT P6SM SCT050 
     FM232000 22007KT P6SM VCTS BKN050CB
       
TAF KTCM 222103Z 2221/2403 25006KT 9999 SCT030 SCT080 QNH3010INS 
     BECMG 2311/2312 31006KT 9999 BKN020 BKN050 QNH3004INS 
     BECMG 2317/2318 03009KT 9999 SCT025 BKN030 QNH3000INS TX30/2223Z TN16/2312Z
       
KTCS 222320Z 2300/2324 05008KT P6SM FEW060 SCT080 BKN100 
     TEMPO 2300/2304 VRB27G37KT 4SM TSRA BKN030CB OVC080 
     FM230400 28008KT P6SM SCT050 BKN100 OVC150 
     FM231200 05008KT P6SM FEW040 SCT070 BKN150 
     FM231800 12005KT P6SM VCTS SCT040CB BKN100
       
KTEB 230047Z 2301/2324 13005KT P6SM SHRA SCT035 BKN070 
     FM230400 08007KT P6SM RA SCT025 OVC050 
     FM230900 04008KT P6SM SCT025 
     FM231600 12009KT P6SM BKN040
       
KTEX 222339Z 2300/2324 09004KT P6SM VCSH OVC080 
     FM230100 09004KT P6SM VCSH BKN100 
     FM230400 11005KT P6SM BKN200 
     FM231500 27005KT P6SM SCT140 
     FM232300 12005KT P6SM BKN110
       
TAF AMD KTIK 222121Z 2221/2323 16010G15KT 9999 FEW090 QNH2983INS 
     BECMG 2223/2224 18006KT 9999 SKC QNH2987INS 
     BECMG 2317/2318 19010G15KT 9999 SCT080 QNH2985INS TX39/2221Z TN24/2311Z
       
KTIX 222334Z 2300/2324 20003KT P6SM BKN150 
     FM231400 21006KT P6SM SCT025 BKN150 
     FM231800 18007KT P6SM VCTS SCT035CB BKN150 AMD NOT SKED 2301/2311
       
KTLH 222323Z 2300/2324 20003KT P6SM BKN250 
     FM231000 00000KT 6SM BR SCT250 
     FM231300 VRB04KT P6SM FEW025 
     FM231700 20007KT P6SM -TSRA BKN050CB 
     FM232100 20005KT P6SM SCT050 BKN250
       
KTMB 222337Z 2300/2324 VRB03KT P6SM FEW030 BKN250 
     FM231600 11010KT P6SM SCT030 SCT250
       
KTOI 222339Z 2300/2324 20005KT P6SM SCT050 
     TEMPO 2310/2312 5SM BR SCT012 
     FM231500 24005KT P6SM SCT050 
     FM232200 21007KT P6SM VCTS BKN050CB
       
KTOL 222344Z 2300/2324 29006KT P6SM SCT030 
     FM230700 VRB03KT P6SM BKN080 
     FM231000 VRB03KT P6SM BKN013 
     FM231200 29004KT P6SM BKN008 BKN017 
     FM231500 29008KT P6SM BKN035 
     FM232300 28007KT P6SM SCT210
       
KTOP 222325Z 2300/2324 06005KT P6SM VCTS SCT080CB 
     TEMPO 2300/2303 VRB20G40KT 2SM TSRA BKN050CB 
     FM230800 07003KT P6SM SCT020 BKN090
       
KTPA 222331Z 2300/2324 VRB03KT P6SM FEW030 SCT100 BKN250 
     FM231200 19005KT P6SM VCTS SCT025CB BKN050 
     FM231500 23007KT P6SM VCTS SCT040CB BKN100 
     FM232200 25007KT P6SM SCT050 BKN200
       
KTPH 222324Z 2300/2324 VRB06KT P6SM SCT110 
     FM230200 VRB06KT P6SM BKN120 
     FM230600 02009KT P6SM SCT120 
     FM232100 18010G20KT P6SM VCTS BKN100CB
       
KTRI 222320Z 2300/2324 24007KT P6SM SCT050 SCT250 
     FM230100 VRB03KT P6SM SCT250 
     TEMPO 2310/2312 4SM BR 
     FM231400 24008KT P6SM SCT040 
     FM232000 24008G14KT P6SM VCTS SCT040CB BKN250
       
KTRK 222322Z 2300/2324 25007KT P6SM SKC 
     FM231200 VRB03KT P6SM FEW100 SCT200 
     FM232100 22010KT P6SM SCT100 SCT200
       
KTRM 222330Z 2300/2324 14009KT P6SM SKC 
     FM230100 VRB05KT P6SM SKC 
     FM231900 14010KT P6SM SCT150
       
KTTD 222332Z 2300/2324 32005KT P6SM SKC 
     FM230700 VRB03KT P6SM SKC 
     FM231300 VRB02KT P6SM SCT020 
     FM231800 26005KT P6SM SKC
       
KTTN 230019Z 2300/2324 11009KT 6SM BR FEW021 BKN060 OVC080 
     FM230300 18005KT P6SM BKN050 OVC070 
     FM230900 28004KT P6SM BKN050 OVC070 
     FM231100 34005KT P6SM BKN050 
     FM231300 01005KT P6SM BKN040 
     FM231700 08004KT P6SM BKN250 
     PROB30 2319/2323 4SM -TSRA OVC025CB 
     FM232300 13006KT 6SM +SHRA BKN080 
     PROB30 2323/2324 4SM TS OVC040CB
       
KTUL 222339Z 2300/2324 19012G20KT P6SM FEW060 
     FM230200 18008KT P6SM SCT250 
     FM231800 15006KT P6SM SCT050 BKN250
       
KTUP 222335Z 2300/2324 21003KT P6SM SCT250 
     FM231500 24006KT P6SM SCT035 
     FM232100 24006KT P6SM VCTS SCT045CB
       
KTUS 222327Z 2300/2324 19014G20KT P6SM VCSH FEW060 SCT100 
     FM230100 04010G16KT P6SM VCTS SCT060CB BKN120 
     TEMPO 2301/2303 VRB15G30KT 4SM TSRA SCT040CB BKN060 
     FM230400 15008KT P6SM SCT080 BKN150 
     FM231800 30006KT P6SM FEW060 SCT120
       
KTVC 222326Z 2300/2324 01005KT P6SM SCT050 
     FM230500 VRB03KT P6SM BKN080 
     FM230800 16004KT 6SM BR BKN040 
     FM231000 17004KT 5SM BR BKN025 
     FM231600 13004KT P6SM BKN250 
     FM231800 VRB04KT P6SM BKN250 
     FM232100 32004KT P6SM BKN025 
     FM232300 36004KT 6SM BR BKN025
       
KTVL 222322Z 2300/2324 04006KT P6SM SKC 
     FM230300 VRB04KT P6SM SKC 
     FM231600 04006KT P6SM FEW100 SCT200 
     FM232100 17005KT P6SM BKN100
       
KTWF 222334Z 2300/2324 31009KT P6SM SKC 
     FM230300 19010KT P6SM SCT150 
     FM231600 35008KT P6SM SCT150
       
KTXK 222334Z 2300/2324 19007KT P6SM FEW050 SCT250 
     FM230300 19005KT P6SM SCT250 
     FM231800 22005KT P6SM VCTS SCT050CB BKN250
       
KTYR 222334Z 2300/2324 21005KT P6SM SCT050 SCT080 SCT250 
     FM230300 18005KT P6SM SCT250 
     FM231500 21007KT P6SM SCT035 SCT250 
     FM231900 19007KT P6SM VCTS SCT050CB BKN250
       
KTYS 222320Z 2300/2324 25009KT P6SM SCT040 SCT250 
     FM230200 23006KT P6SM SCT250 
     FM231400 23007KT P6SM SCT040 
     FM232000 24009G15KT P6SM VCTS SCT040CB BKN250